createdAt,value
2022-11-23T00:00:33.042Z,88.55
2022-11-23T00:03:02.214Z,88.74
2022-11-23T00:05:33.503Z,88.87
2022-11-23T00:08:03.666Z,88.88
2022-11-23T00:10:34.195Z,88.92
2022-11-23T00:13:04.323Z,88.93
2022-11-23T00:15:35.728Z,88.96
2022-11-23T00:18:06.744Z,88.99
2022-11-23T00:20:38.735Z,88.91
2022-11-23T00:23:07.750Z,89.08
2022-11-23T00:25:36.984Z,89.22
2022-11-23T00:28:07.892Z,89.38
2022-11-23T00:30:38.807Z,89.44
2022-11-23T00:33:09.449Z,89.44
2022-11-23T00:35:38.838Z,89.55
2022-11-23T00:38:08.582Z,89.62
2022-11-23T00:40:39.159Z,89.56
2022-11-23T00:43:08.979Z,89.52
2022-11-23T00:45:38.561Z,89.52
2022-11-23T00:48:11.638Z,89.54
2022-11-23T00:50:42.910Z,89.54
2022-11-23T00:53:13.327Z,89.72
2022-11-23T00:55:47.032Z,89.89
2022-11-23T00:58:17.973Z,90.04
2022-11-23T01:00:47.711Z,90.14
2022-11-23T01:03:17.688Z,90.15
2022-11-23T01:05:47.431Z,90.12
2022-11-23T01:08:17.407Z,90.11
2022-11-23T01:10:46.988Z,90.10
2022-11-23T01:13:17.009Z,89.95
2022-11-23T01:15:50.582Z,90.01
2022-11-23T01:18:22.206Z,90.08
2022-11-23T01:20:53.082Z,90.03
2022-11-23T01:23:23.905Z,90.04
2022-11-23T01:25:57.207Z,89.96
2022-11-23T01:28:27.178Z,89.85
2022-11-23T01:31:10.434Z,89.84
2022-11-23T01:33:42.244Z,89.84
2022-11-23T01:36:18.164Z,89.86
2022-11-23T01:38:49.108Z,89.85
2022-11-23T01:41:25.439Z,89.95
2022-11-23T01:43:55.263Z,90.06
2022-11-23T01:46:26.587Z,90.12
2022-11-23T01:49:04.337Z,90.12
2022-11-23T01:51:40.991Z,90.16
2022-11-23T01:54:15.900Z,90.01
2022-11-23T01:56:48.997Z,89.95
2022-11-23T01:59:19.586Z,89.93
2022-11-23T02:01:49.037Z,89.84
2022-11-23T02:04:31.320Z,89.99
2022-11-23T02:07:01.907Z,90.09
2022-11-23T02:09:32.723Z,90.16
2022-11-23T02:12:04.097Z,90.18
2022-11-23T02:14:35.107Z,90.20
2022-11-23T02:17:04.828Z,90.31
2022-11-23T02:19:58.382Z,90.22
2022-11-23T02:22:54.928Z,90.14
2022-11-23T02:25:48.702Z,90.19
2022-11-23T02:28:26.010Z,90.38
2022-11-23T02:30:55.823Z,90.41
2022-11-23T02:33:28.027Z,90.40
2022-11-23T02:36:01.008Z,90.40
2022-11-23T02:38:42.218Z,90.44
2022-11-23T02:41:12.646Z,90.44
2022-11-23T02:43:42.562Z,90.36
2022-11-23T02:46:13.935Z,90.26
2022-11-23T02:48:43.791Z,90.19
2022-11-23T02:51:13.971Z,90.28
2022-11-23T02:53:43.995Z,90.25
2022-11-23T02:56:13.640Z,90.26
2022-11-23T02:58:44.365Z,90.29
2022-11-23T03:01:13.958Z,90.33
2022-11-23T03:03:45.365Z,90.27
2022-11-23T03:06:15.112Z,90.34
2022-11-23T03:08:45.331Z,90.35
2022-11-23T03:11:17.698Z,90.34
2022-11-23T03:13:48.462Z,90.41
2022-11-23T03:16:19.838Z,90.47
2022-11-23T03:18:51.125Z,90.47
2022-11-23T03:21:21.721Z,90.37
2022-11-23T03:23:51.763Z,90.22
2022-11-23T03:26:23.125Z,90.04
2022-11-23T03:28:55.236Z,89.79
2022-11-23T03:31:28.457Z,89.64
2022-11-23T03:33:59.370Z,89.57
2022-11-23T03:36:28.877Z,89.46
2022-11-23T03:38:59.856Z,89.43
2022-11-23T03:41:34.598Z,89.43
2022-11-23T03:44:04.530Z,89.39
2022-11-23T03:46:35.425Z,89.38
2022-11-23T03:49:05.464Z,89.27
2022-11-23T03:51:35.181Z,89.14
2022-11-23T03:54:05.669Z,89.04
2022-11-23T03:56:36.408Z,88.69
2022-11-23T03:59:06.734Z,88.71
2022-11-23T04:01:36.363Z,88.72
2022-11-23T04:04:08.020Z,88.75
2022-11-23T04:06:39.569Z,88.76
2022-11-23T04:09:14.751Z,88.70
2022-11-23T04:11:52.813Z,88.71
2022-11-23T04:14:23.390Z,88.78
2022-11-23T04:16:54.112Z,88.77
2022-11-23T04:19:24.721Z,88.72
2022-11-23T04:21:54.576Z,88.75
2022-11-23T04:24:25.971Z,88.75
2022-11-23T04:26:56.828Z,88.74
2022-11-23T04:29:27.710Z,88.82
2022-11-23T04:31:56.584Z,88.92
2022-11-23T04:34:26.292Z,88.96
2022-11-23T04:36:57.261Z,88.94
2022-11-23T04:39:30.014Z,89.00
2022-11-23T04:42:15.422Z,88.97
2022-11-23T04:44:46.752Z,88.95
2022-11-23T04:47:16.229Z,89.00
2022-11-23T04:49:47.192Z,88.88
2022-11-23T04:52:19.299Z,88.93
2022-11-23T04:54:50.956Z,88.87
2022-11-23T04:57:20.015Z,88.80
2022-11-23T04:59:50.368Z,88.91
2022-11-23T05:02:19.464Z,89.05
2022-11-23T05:04:53.371Z,89.12
2022-11-23T05:07:22.997Z,89.18
2022-11-23T05:09:55.099Z,89.10
2022-11-23T05:12:26.003Z,89.13
2022-11-23T05:14:56.327Z,89.21
2022-11-23T05:17:29.592Z,89.20
2022-11-23T05:19:59.219Z,89.15
2022-11-23T05:22:31.432Z,89.11
2022-11-23T05:25:01.275Z,89.24
2022-11-23T05:27:31.637Z,89.35
2022-11-23T05:30:01.065Z,89.34
2022-11-23T05:32:29.976Z,89.18
2022-11-23T05:35:00.239Z,89.22
2022-11-23T05:37:31.767Z,89.27
2022-11-23T05:40:02.621Z,89.32
2022-11-23T05:42:33.970Z,89.31
2022-11-23T05:47:51.499Z,89.35
2022-11-23T05:50:24.671Z,89.26
2022-11-23T05:52:58.961Z,89.24
2022-11-23T05:55:29.061Z,89.17
2022-11-23T05:57:59.647Z,89.17
2022-11-23T06:00:30.227Z,89.15
2022-11-23T06:03:01.501Z,89.17
2022-11-23T06:05:31.406Z,89.16
2022-11-23T06:08:00.540Z,89.01
2022-11-23T06:10:31.153Z,89.05
2022-11-23T06:13:04.647Z,89.06
2022-11-23T06:15:35.380Z,89.07
2022-11-23T06:18:06.032Z,89.09
2022-11-23T06:20:37.099Z,89.15
2022-11-23T06:23:08.040Z,89.14
2022-11-23T06:25:39.047Z,89.10
2022-11-23T06:28:20.180Z,89.03
2022-11-23T06:30:50.285Z,89.07
2022-11-23T06:33:20.729Z,89.15
2022-11-23T06:35:56.771Z,89.21
2022-11-23T06:38:27.972Z,89.15
2022-11-23T06:41:11.440Z,89.15
2022-11-23T06:43:41.945Z,89.23
2022-11-23T06:46:10.974Z,89.26
2022-11-23T06:48:45.773Z,89.30
2022-11-23T06:51:15.582Z,89.27
2022-11-23T06:53:45.420Z,89.30
2022-11-23T06:56:15.681Z,89.16
2022-11-23T06:58:45.440Z,88.96
2022-11-23T07:01:16.759Z,88.88
2022-11-23T07:03:48.079Z,88.92
2022-11-23T07:06:19.270Z,88.98
2022-11-23T07:08:50.816Z,88.87
2022-11-23T07:11:23.500Z,88.77
2022-11-23T07:13:52.894Z,88.66
2022-11-23T07:16:22.114Z,88.64
2022-11-23T07:18:52.056Z,88.68
2022-11-23T07:21:22.024Z,88.68
2022-11-23T07:23:54.055Z,88.61
2022-11-23T07:26:24.666Z,88.58
2022-11-23T07:28:54.673Z,88.57
2022-11-23T07:31:24.558Z,88.61
2022-11-23T07:33:55.540Z,88.61
2022-11-23T07:36:25.109Z,88.62
2022-11-23T07:38:57.053Z,88.56
2022-11-23T07:41:28.160Z,88.50
2022-11-23T07:44:02.704Z,88.44
2022-11-23T07:46:33.197Z,88.42
2022-11-23T07:49:04.562Z,88.40
2022-11-23T07:51:36.769Z,88.41
2022-11-23T07:54:07.101Z,88.39
2022-11-23T07:56:38.240Z,88.37
2022-11-23T07:59:09.292Z,88.34
2022-11-23T08:01:40.667Z,88.38
2022-11-23T08:04:11.347Z,88.32
2022-11-23T10:51:58.560Z,89.70
2022-11-23T10:54:34.149Z,89.63
2022-11-23T10:57:30.766Z,89.54
2022-11-23T11:00:19.056Z,89.38
2022-11-23T11:02:54.995Z,89.35
2022-11-23T11:06:07.496Z,89.30
2022-11-23T11:08:25.068Z,89.18
2022-11-23T11:11:12.277Z,89.25
2022-11-23T11:13:47.761Z,89.20
2022-11-23T11:16:37.254Z,88.91
2022-11-23T11:19:32.848Z,89.01
2022-11-23T11:22:08.815Z,89.02
2022-11-23T11:24:45.868Z,89.00
2022-11-23T11:27:20.566Z,88.87
2022-11-23T11:29:53.462Z,88.57
2022-11-23T11:32:52.291Z,88.46
2022-11-23T11:35:35.796Z,88.61
2022-11-23T11:38:19.888Z,88.72
2022-11-23T11:40:52.036Z,88.76
2022-11-23T11:43:39.170Z,88.97
2022-11-23T11:48:59.254Z,89.22
2022-11-23T11:51:40.511Z,89.27
2022-11-23T11:54:20.777Z,89.18
2022-11-23T11:56:52.265Z,89.04
2022-11-23T11:59:44.292Z,89.05
2022-11-23T12:02:23.013Z,88.91
2022-11-23T12:05:15.831Z,88.83
2022-11-23T12:08:03.423Z,88.66
2022-11-23T12:10:57.203Z,89.38
2022-11-23T12:13:35.117Z,89.39
2022-11-23T12:16:47.694Z,89.22
2022-11-23T12:19:26.559Z,88.72
2022-11-23T12:22:09.898Z,88.58
2022-11-23T12:25:09.878Z,88.71
2022-11-23T12:28:00.663Z,88.62
2022-11-23T12:43:24.286Z,86.84
2022-11-23T12:46:21.263Z,86.92
2022-11-23T12:49:14.286Z,87.01
2022-11-23T12:52:19.527Z,87.20
2022-11-23T12:54:59.287Z,87.74
2022-11-23T12:57:47.972Z,87.79
2022-11-23T13:00:39.560Z,87.80
2022-11-23T13:03:40.836Z,87.81
2022-11-23T13:07:12.360Z,87.92
2022-11-23T13:33:51.668Z,86.17
2022-11-23T13:47:23.074Z,83.82
2022-11-23T13:50:19.699Z,83.61
2022-11-23T13:52:53.806Z,83.68
2022-11-23T13:55:37.370Z,83.85
2022-11-23T13:58:32.315Z,83.97
2022-11-23T14:01:02.973Z,84.11
2022-11-23T14:03:49.461Z,84.30
2022-11-23T14:06:55.841Z,84.34
2022-11-23T14:09:54.727Z,84.53
2022-11-23T14:12:54.456Z,84.87
2022-11-23T14:19:26.369Z,85.29
2022-11-23T14:22:10.111Z,85.50
2022-11-23T14:25:01.534Z,85.55
2022-11-23T14:27:48.923Z,85.71
2022-11-23T14:30:24.414Z,86.00
2022-11-23T14:33:18.180Z,86.04
2022-11-23T14:35:55.502Z,86.15
2022-11-23T14:38:46.688Z,86.42
2022-11-23T14:41:37.384Z,86.78
2022-11-23T14:44:15.040Z,87.01
2022-11-23T14:47:05.882Z,87.19
2022-11-23T14:49:38.758Z,87.27
2022-11-23T14:52:27.905Z,87.41
2022-11-23T14:55:05.270Z,87.35
2022-11-23T14:57:43.918Z,87.40
2022-11-23T15:00:44.104Z,87.55
2022-11-23T15:06:14.426Z,87.99
2022-11-23T15:09:26.934Z,87.99
2022-11-23T15:12:28.805Z,88.04
2022-11-23T15:14:59.692Z,88.10
2022-11-23T15:17:31.132Z,88.12
2022-11-23T15:20:03.037Z,88.20
2022-11-23T15:22:41.004Z,88.31
2022-11-23T15:25:20.504Z,88.39
2022-11-23T15:27:53.329Z,88.52
2022-11-23T15:30:30.893Z,88.64
2022-11-23T15:33:16.244Z,88.67
2022-11-23T15:35:48.592Z,89.06
2022-11-23T15:38:24.903Z,89.00
2022-11-23T15:41:00.916Z,88.92
2022-11-23T15:43:37.406Z,89.00
2022-11-23T15:46:16.635Z,88.89
2022-11-23T15:48:50.258Z,88.83
2022-11-23T15:51:37.866Z,88.87
2022-11-23T15:54:27.870Z,88.99
2022-11-23T15:56:59.389Z,88.83
2022-11-23T15:59:37.967Z,89.01
2022-11-23T16:02:25.213Z,89.17
2022-11-23T16:05:16.899Z,89.12
2022-11-23T16:07:58.224Z,89.20
2022-11-23T16:10:32.436Z,89.42
2022-11-23T16:13:05.628Z,89.51
2022-11-23T16:15:42.380Z,89.60
2022-11-23T16:18:23.569Z,89.72
2022-11-23T16:20:58.671Z,89.80
2022-11-23T16:23:38.801Z,89.89
2022-11-23T16:26:08.048Z,89.92
2022-11-23T16:28:39.653Z,89.87
2022-11-23T16:31:31.634Z,89.89
2022-11-23T16:34:02.237Z,89.91
2022-11-23T16:36:31.763Z,89.94
2022-11-23T16:39:05.390Z,89.79
2022-11-23T16:41:32.114Z,89.74
2022-11-23T16:44:01.301Z,89.81
2022-11-23T16:46:32.729Z,89.88
2022-11-23T16:49:01.826Z,89.97
2022-11-23T16:51:31.736Z,89.97
2022-11-23T16:54:20.464Z,89.96
2022-11-23T16:56:32.366Z,90.17
2022-11-23T16:59:03.297Z,90.19
2022-11-23T17:01:32.420Z,90.05
2022-11-23T17:04:02.324Z,90.07
2022-11-23T17:06:31.193Z,90.22
2022-11-23T17:09:07.633Z,90.38
2022-11-23T17:11:33.011Z,90.46
2022-11-23T17:14:02.929Z,90.37
2022-11-23T17:16:34.284Z,90.45
2022-11-23T17:19:04.191Z,90.34
2022-11-23T17:21:33.293Z,90.29
2022-11-23T17:24:03.299Z,90.32
2022-11-23T17:26:42.821Z,90.26
2022-11-23T17:29:19.286Z,90.23
2022-11-23T17:31:49.171Z,90.20
2022-11-23T17:34:20.791Z,90.30
2022-11-23T17:36:52.665Z,90.28
2022-11-23T17:39:26.099Z,90.23
2022-11-23T17:42:04.355Z,90.31
2022-11-23T17:44:31.351Z,90.43
2022-11-23T17:47:01.927Z,90.61
2022-11-23T17:49:33.162Z,90.58
2022-11-23T17:52:02.286Z,90.53
2022-11-23T17:54:31.452Z,90.57
2022-11-23T17:57:00.436Z,90.45
2022-11-23T17:59:29.327Z,90.44
2022-11-23T18:01:58.452Z,90.48
2022-11-23T18:04:27.733Z,90.46
2022-11-23T18:06:56.888Z,90.47
2022-11-23T18:09:25.927Z,90.55
2022-11-23T18:11:55.940Z,90.51
2022-11-23T18:14:26.767Z,90.52
2022-11-23T18:16:56.680Z,90.63
2022-11-23T18:19:25.437Z,90.65
2022-11-23T18:21:54.075Z,90.65
2022-11-23T18:24:23.010Z,90.51
2022-11-23T18:26:53.736Z,90.56
2022-11-23T18:29:22.792Z,90.69
2022-11-23T18:31:53.319Z,90.71
2022-11-23T18:34:23.202Z,90.65
2022-11-23T18:36:52.071Z,90.54
2022-11-23T18:39:22.522Z,90.64
2022-11-23T18:41:52.724Z,90.54
2022-11-23T18:44:22.442Z,90.65
2022-11-23T18:46:51.951Z,90.79
2022-11-23T18:49:21.309Z,90.81
2022-11-23T18:51:51.065Z,90.89
2022-11-23T18:54:22.098Z,90.91
2022-11-23T18:56:51.476Z,90.85
2022-11-23T18:59:42.509Z,90.90
2022-11-23T19:01:52.230Z,90.89
2022-11-23T19:04:21.193Z,90.98
2022-11-23T19:06:49.973Z,91.12
2022-11-23T19:09:19.408Z,91.06
2022-11-23T19:11:51.835Z,91.08
2022-11-23T19:14:20.756Z,91.08
2022-11-23T19:16:49.715Z,91.07
2022-11-23T19:19:20.005Z,91.11
2022-11-23T19:21:48.820Z,91.30
2022-11-23T19:24:20.014Z,91.36
2022-11-23T19:26:49.097Z,91.22
2022-11-23T19:29:32.716Z,91.23
2022-11-23T19:31:51.905Z,91.15
2022-11-23T19:34:20.858Z,91.17
2022-11-23T19:36:49.746Z,91.28
2022-11-23T19:39:18.536Z,91.20
2022-11-23T19:41:47.800Z,91.13
2022-11-23T19:44:16.863Z,91.35
2022-11-23T19:46:45.455Z,91.32
2022-11-23T19:49:15.257Z,91.22
2022-11-23T19:51:45.410Z,91.17
2022-11-23T19:54:14.337Z,91.19
2022-11-23T19:56:43.250Z,91.13
2022-11-23T19:59:12.076Z,91.08
2022-11-23T20:01:42.195Z,91.08
2022-11-23T20:04:11.174Z,91.19
2022-11-23T20:06:42.001Z,91.25
2022-11-23T20:09:21.089Z,91.25
2022-11-23T20:11:51.564Z,91.21
2022-11-23T20:14:21.246Z,91.19
2022-11-23T20:16:50.646Z,91.24
2022-11-23T20:19:20.663Z,91.45
2022-11-23T20:21:49.687Z,91.39
2022-11-23T20:24:18.519Z,91.38
2022-11-23T20:26:47.433Z,91.36
2022-11-23T20:29:17.105Z,91.45
2022-11-23T20:31:45.959Z,91.46
2022-11-23T20:34:20.461Z,91.50
2022-11-23T20:36:45.787Z,91.36
2022-11-23T20:39:16.336Z,91.45
2022-11-23T20:41:49.082Z,91.51
2022-11-23T20:44:19.015Z,91.59
2022-11-23T20:47:04.084Z,91.58
2022-11-23T20:49:19.196Z,91.65
2022-11-23T20:51:48.170Z,91.70
2022-11-23T20:54:16.912Z,91.73
2022-11-23T20:56:45.708Z,91.64
2022-11-23T20:59:14.883Z,91.59
2022-11-23T21:01:45.019Z,91.64
2022-11-23T21:04:14.325Z,91.71
2022-11-23T21:06:43.424Z,91.70
2022-11-23T21:09:12.265Z,91.65
2022-11-23T21:12:00.367Z,91.61
2022-11-23T21:14:31.218Z,91.64
2022-11-23T21:17:00.422Z,91.70
2022-11-23T21:19:39.053Z,91.63
2022-11-23T21:22:11.305Z,91.61
2022-11-23T21:24:40.164Z,91.69
2022-11-23T21:27:11.917Z,91.74
2022-11-23T21:29:41.171Z,91.75
2022-11-23T21:32:10.195Z,91.61
2022-11-23T21:34:40.498Z,91.61
2022-11-23T21:37:12.571Z,91.53
2022-11-23T21:39:41.577Z,91.51
2022-11-23T21:42:11.877Z,91.47
2022-11-23T21:44:40.681Z,91.45
2022-11-23T21:47:09.335Z,91.38
2022-11-23T21:49:38.198Z,91.29
2022-11-23T21:52:08.807Z,91.31
2022-11-23T21:54:37.545Z,91.15
2022-11-23T21:57:07.690Z,91.26
2022-11-23T21:59:39.548Z,91.09
2022-11-23T22:02:11.717Z,91.13
2022-11-23T22:04:40.616Z,91.28
2022-11-23T22:07:09.561Z,91.40
2022-11-23T22:09:38.805Z,91.42
2022-11-23T22:12:08.241Z,91.47
2022-11-23T22:14:37.984Z,91.45
2022-11-23T22:17:06.979Z,91.48
2022-11-23T22:19:35.733Z,91.48
2022-11-23T22:22:06.180Z,91.61
2022-11-23T22:24:35.465Z,91.66
2022-11-23T22:27:05.884Z,91.65
2022-11-23T22:29:35.076Z,91.75
2022-11-23T22:32:06.074Z,91.79
2022-11-23T22:34:35.820Z,91.81
2022-11-23T22:37:10.217Z,91.83
2022-11-23T22:39:38.799Z,91.87
2022-11-23T22:42:08.211Z,91.83
2022-11-23T22:44:38.253Z,91.77
2022-11-23T22:47:07.255Z,91.77
2022-11-23T22:49:38.253Z,91.87
2022-11-23T22:52:07.157Z,92.01
2022-11-23T22:54:38.247Z,92.16
2022-11-23T22:57:07.110Z,92.23
2022-11-23T22:59:35.851Z,92.19
2022-11-23T23:02:06.499Z,92.25
2022-11-23T23:04:36.737Z,92.32
2022-11-23T23:07:05.443Z,92.40
2022-11-23T23:09:35.115Z,92.48
2022-11-23T23:12:04.456Z,92.54
2022-11-23T23:14:35.442Z,92.59
2022-11-23T23:17:06.144Z,92.55
2022-11-23T23:19:35.505Z,92.52
2022-11-23T23:22:06.236Z,92.57
2022-11-23T23:24:36.247Z,92.63
2022-11-23T23:27:07.168Z,92.64
2022-11-23T23:29:38.303Z,92.63
2022-11-23T23:32:07.512Z,92.73
2022-11-23T23:34:37.346Z,92.86
2022-11-23T23:37:06.689Z,92.90
2022-11-23T23:39:36.184Z,92.90
2022-11-23T23:42:07.305Z,92.93
2022-11-23T23:44:36.502Z,92.97
2022-11-23T23:47:06.121Z,92.88
2022-11-23T23:49:37.100Z,92.86
2022-11-23T23:52:06.564Z,92.85
2022-11-23T23:54:35.702Z,92.81
2022-11-23T23:57:06.026Z,92.91
2022-11-23T23:59:36.535Z,92.94
